Date,TemperatureHighF,TemperatureAvgF,TemperatureLowF,DewpointHighF,DewpointAvgF,DewpointLowF,HumidityHigh,HumidityAvg,HumidityLow,PressureMaxIn,PressureMinIn,WindSpeedMaxMPH,WindSpeedAvgMPH,GustSpeedMaxMPH,PrecipitationSumIn
2013-1-30,52,47,38,31,25,19,61,43,29,29.82,29.66,10,4,27,0.12
2013-1-31,68,57,31,31,26,23,77,34,19,29.98,29.76,11,4,19,0.03
2013-2-1,59,45,30,38,28,18,66,53,38,30.06,29.83,6,2,15,0.02
2013-2-2,66,55,44,45,38,33,85,56,30,29.99,29.81,6,2,14,0.01
2013-2-3,70,54,37,38,32,27,80,48,21,29.99,29.65,8,2,17,0.01
2013-2-4,73,60,52,57,49,30,91,68,34,29.65,29.44,8,4,17,0.01
2013-2-5,68,61,56,60,57,54,98,90,70,29.67,29.53,4,1,11,0.01
2013-2-6,76,63,56,63,57,54,98,82,52,29.67,29.51,12,4,19,0.00
2013-2-7,79,64,55,59,54,41,95,72,29,29.77,29.47,12,6,24,0.00
2013-2-8,64,52,42,47,33,20,77,53,19,29.92,29.77,8,2,16,0.00
2013-2-9,58,50,46,57,46,34,97,87,61,29.80,29.41,11,6,22,0.00
2013-2-10,68,59,48,64,39,25,97,54,21,29.67,29.31,14,3,30,0.02
2013-2-11,55,51,47,40,35,29,74,56,41,29.81,29.66,7,3,18,0.02
2013-2-12,50,47,42,47,44,37,96,89,76,29.72,29.54,7,2,18,0.27
2013-2-13,57,46,38,39,35,30,88,69,37,29.83,29.70,7,2,15,0.02
2013-2-14,69,52,35,41,37,32,91,61,30,29.78,29.66,5,1,10,0.00
2013-2-15,53,47,37,38,29,19,69,51,31,30.06,29.74,7,3,17,0.00
2013-2-16,57,43,29,30,26,22,80,53,31,30.09,29.84,4,1,8,0.00
2013-2-17,71,54,37,45,34,29,78,50,21,29.84,29.57,14,5,25,0.00
2013-2-18,77,62,52,56,44,30,84,57,25,29.79,29.42,13,7,28,0.00
2013-2-19,62,51,40,38,28,22,65,42,22,29.99,29.78,7,3,14,0.02
2013-2-20,50,45,42,41,38,33,86,76,52,29.83,29.45,10,5,20,0.14
2013-2-21,68,53,42,49,39,25,94,65,20,29.60,29.27,10,5,23,0.22
2013-2-22,49,40,31,38,27,22,80,61,43,29.82,29.59,7,2,16,0.20
2013-2-23,55,42,32,31,28,25,75,58,38,29.78,29.59,5,1,11,0.00
2013-2-24,70,53,34,46,38,29,82,59,38,29.60,29.28,11,5,23,0.00
2013-2-25,60,51,40,51,40,29,90,68,36,29.36,29.15,15,8,29,0.04
2013-2-26,58,46,39,34,32,30,74,59,37,29.57,29.36,14,5,27,0.01
2013-2-27,57,46,37,32,28,20,79,53,25,29.92,29.55,9,4,18,0.00
2013-2-28,59,46,35,29,26,23,73,48,26,29.98,29.85,8,4,20,0.00
2013-3-1,57,45,35,32,28,24,70,52,36,29.98,29.85,7,2,13,0.00
2013-3-2,56,42,31,29,26,23,79,54,30,30.11,29.91,7,3,17,0.00
2013-3-3,71,54,37,40,30,23,60,42,25,29.91,29.46,13,6,26,0.00
2013-3-4,87,68,54,49,42,32,67,43,14,29.47,29.25,12,6,25,0.00
2013-3-5,65,51,44,44,26,17,65,39,21,30.04,29.41,13,6,30,0.00
2013-3-6,61,48,35,24,21,15,62,38,17,30.14,29.88,4,1,9,0.00
2013-3-7,71,55,40,37,28,21,52,36,15,29.91,29.76,11,4,21,0.00
2013-3-8,61,58,54,57,52,38,89,79,51,29.84,29.65,10,5,22,0.00
2013-3-9,68,64,59,65,60,54,96,88,82,29.65,29.31,12,7,25,1.08
2013-3-10,61,52,41,60,40,30,97,66,47,29.77,29.39,11,4,25,1.12
2013-3-11,61,46,34,34,27,20,84,53,23,29.81,29.68,8,2,16,0.01
2013-3-12,68,53,37,33,29,25,70,42,24,29.99,29.72,9,2,16,0.00
2013-3-13,70,56,41,39,36,32,77,50,29,30.11,29.97,6,2,17,0.00
2013-3-14,77,61,46,47,42,36,73,52,31,30.02,29.83,10,4,20,0.00
2013-3-15,82,67,53,54,48,42,88,54,26,29.84,29.55,10,5,22,0.00
2013-3-16,82,69,57,59,54,46,85,59,43,29.55,29.35,14,8,27,0.00
2013-3-17,73,66,59,61,55,48,86,67,50,29.46,29.34,13,4,25,0.00
2013-3-18,70,63,57,62,50,39,92,64,44,29.66,29.31,9,3,20,0.00
2013-3-19,68,58,47,46,40,33,72,52,36,29.78,29.62,8,2,14,0.00
2013-3-20,68,58,47,38,33,25,64,41,22,29.97,29.71,6,1,13,0.00
2013-3-21,69,61,52,58,44,29,80,54,38,29.71,29.22,14,7,32,0.00
2013-3-22,65,54,46,60,49,43,95,85,74,29.52,29.22,9,4,22,0.00
2013-3-23,55,50,46,50,47,44,96,89,82,29.58,29.34,7,2,18,0.17
2013-3-24,53,45,38,47,30,18,94,58,34,29.86,29.50,13,7,25,0.01
2013-3-25,55,43,32,25,21,16,69,43,22,30.09,29.86,8,3,17,0.00
2013-3-26,60,44,31,29,23,19,68,46,26,30.19,29.97,4,1,9,0.00
2013-3-27,71,55,39,44,34,25,63,46,30,29.99,29.75,12,5,28,0.00
2013-3-28,70,60,49,58,51,43,87,72,63,29.89,29.74,9,5,22,0.00
2013-3-29,77,66,59,59,57,55,88,72,50,29.85,29.67,12,6,24,0.00
2013-3-30,77,66,53,64,58,-100,97,79,60,29.78,29.54,9,3,33,0.46
2013-3-31,76,67,61,63,58,51,93,72,48,29.65,29.47,9,3,17,0.02
2013-4-1,81,66,52,54,50,47,91,61,32,29.74,29.59,5,1,12,0.00
2013-4-2,69,65,54,63,59,45,94,81,61,29.68,29.53,13,4,33,0.13
2013-4-3,54,48,44,49,46,42,96,92,71,29.83,29.59,9,3,18,1.36
2013-4-4,50,45,41,43,41,39,96,85,73,29.89,29.79,7,3,15,0.28
2013-4-5,68,53,39,50,44,37,93,73,48,29.93,29.71,6,1,12,0.00
2013-4-6,75,64,54,59,53,47,83,69,55,29.70,29.49,12,7,24,0.00
2013-4-7,72,67,61,62,60,56,88,79,70,29.57,29.40,12,7,26,0.00
2013-4-8,75,70,65,66,62,58,85,78,69,29.42,29.32,12,7,28,0.00
2013-4-9,81,73,67,68,65,62,88,76,62,29.36,29.28,14,8,28,0.00
2013-4-10,73,47,38,68,43,35,94,85,64,29.65,29.36,8,5,22,0.17
2013-4-11,63,49,40,40,34,29,80,59,32,29.66,29.49,5,2,13,0.01
2013-4-12,78,60,42,50,44,38,89,58,30,29.67,29.53,6,1,15,0.01
2013-4-13,78,66,52,52,48,43,81,54,35,29.66,29.44,10,4,22,0.00
2013-4-14,83,69,56,66,58,49,87,69,54,29.45,29.20,13,6,24,0.00
2013-4-15,87,76,68,69,66,64,91,73,50,29.41,29.26,11,7,23,0.00
2013-4-16,89,77,70,68,66,63,88,70,47,29.55,29.40,10,7,23,0.00
2013-4-17,86,77,72,70,68,66,93,75,55,29.53,29.28,16,9,35,0.00
2013-4-18,76,56,45,71,47,34,95,74,50,29.82,29.21,13,6,25,1.09
2013-4-19,65,51,39,36,32,27,85,53,26,29.96,29.82,7,2,16,0.07
2013-4-20,72,57,43,38,35,31,70,46,24,29.88,29.67,10,4,23,0.00
2013-4-21,72,60,47,52,47,37,82,63,47,29.86,29.73,9,4,17,0.00
2013-4-22,79,66,51,59,54,47,89,66,48,29.77,29.50,12,5,23,0.00
2013-4-23,67,54,42,61,49,37,93,82,72,29.86,29.45,10,4,23,0.00
2013-4-24,61,49,37,40,35,31,90,62,38,29.99,29.85,6,3,19,0.03
2013-4-25,74,62,50,46,40,34,57,46,31,30.01,29.81,8,3,18,0.00
2013-4-26,77,67,60,66,56,44,85,68,50,29.82,29.64,8,4,21,0.00
2013-4-27,75,68,60,66,60,55,94,75,53,29.78,29.64,5,2,15,0.00
2013-4-28,82,67,52,66,59,50,95,78,54,29.70,29.51,6,2,12,0.00
2013-4-29,86,74,59,67,61,57,95,67,40,29.57,29.44,10,3,20,0.00
2013-4-30,84,71,60,65,61,57,93,73,50,29.49,29.39,9,4,17,0.00
2013-5-1,82,72,65,67,64,62,93,78,54,29.62,29.44,6,3,14,0.00
2013-5-2,71,52,43,63,45,36,89,78,69,30.01,29.58,8,4,22,0.00
2013-5-3,66,53,38,36,32,27,78,50,24,29.99,29.70,8,2,19,0.00
2013-5-4,74,58,39,38,34,25,84,45,20,29.70,29.57,6,2,23,0.00
2013-5-5,70,58,46,47,42,38,77,57,41,29.83,29.68,6,1,14,0.00
2013-5-6,78,64,50,55,50,45,86,63,40,29.80,29.66,4,0,8,0.00
2013-5-7,85,72,55,56,54,51,88,56,31,29.73,29.58,5,1,13,0.00
2013-5-8,85,75,63,62,56,52,74,54,37,29.65,29.52,11,4,22,0.00
2013-5-9,76,68,65,67,62,55,96,83,52,29.65,29.49,10,3,17,0.28
2013-5-10,82,71,65,67,61,-100,97,76,50,29.71,29.53,4,1,11,0.04
2013-5-11,82,70,62,58,51,-100,83,55,32,29.83,29.69,7,2,20,0.00
2013-5-12,79,68,57,54,43,36,68,42,22,29.93,29.80,5,1,15,0.00
2013-5-13,88,72,57,53,47,40,62,42,26,29.90,29.77,8,3,15,0.00
2013-5-14,87,75,59,62,56,50,83,55,32,29.81,29.63,9,4,25,0.00
2013-5-15,76,72,66,70,66,61,94,82,64,29.70,29.42,11,6,25,1.69
2013-5-16,82,66,62,72,45,-100,96,86,69,29.54,29.39,8,4,17,1.69
2013-5-17,90,79,72,73,67,-100,96,78,56,29.50,29.43,9,4,25,0.00
2013-5-18,93,82,71,73,70,67,89,70,49,29.54,29.40,11,6,26,0.00
2013-5-19,90,80,70,72,68,65,88,69,54,29.48,29.32,12,7,26,0.00
2013-5-20,90,80,73,72,69,67,87,70,53,29.47,29.29,15,7,31,0.00
2013-5-21,82,72,59,71,66,57,94,81,67,29.54,29.31,15,5,31,0.42
2013-5-22,86,70,53,65,58,52,97,72,35,29.61,29.50,5,1,10,0.01
2013-5-23,85,77,69,73,70,62,95,78,64,29.71,29.53,9,3,15,0.00
2013-5-24,84,76,67,74,70,63,93,81,63,29.83,29.62,11,3,23,0.33
2013-5-25,82,72,66,73,68,64,96,88,70,29.81,29.68,8,3,22,0.51
2013-5-26,87,78,71,72,70,69,94,78,59,29.73,29.57,9,4,22,0.09
2013-5-27,86,78,71,70,69,67,90,74,58,29.64,29.44,9,6,23,0.00
2013-5-28,85,78,71,69,68,66,88,71,57,29.54,29.40,12,7,27,0.00
2013-5-29,84,76,71,72,70,68,93,81,67,29.45,29.35,15,8,32,0.47
2013-5-30,89,80,73,74,71,69,89,76,57,29.44,29.34,11,7,27,0.47
2013-5-31,90,82,76,75,72,70,88,75,56,29.48,29.33,10,6,24,0.00
2013-6-1,90,80,75,75,70,-100,89,77,60,29.59,29.36,12,4,24,0.09
2013-6-2,84,76,66,69,58,47,79,56,31,29.73,29.59,4,1,12,0.01
2013-6-3,90,76,62,63,59,55,85,58,34,29.65,29.49,7,2,12,0.00
2013-6-4,88,76,70,70,66,62,85,71,54,29.62,29.47,10,4,18,0.00
2013-6-6,77,74,70,70,66,65,94,79,69,29.59,29.49,3,1,11,0.00
2013-6-7,83,76,69,65,56,54,80,51,40,29.60,29.53,1,0,9,0.00
2013-6-8,89,76,62,63,60,58,90,60,39,29.59,29.44,7,3,18,0.00
2013-6-9,88,78,67,71,68,62,96,73,52,29.59,29.49,7,2,12,0.72
2013-6-10,98,84,70,72,66,56,87,60,26,29.62,29.54,6,2,17,0.03
2013-6-11,93,84,73,75,70,64,90,66,46,29.67,29.56,7,3,16,0.00
2013-6-12,94,84,74,73,70,66,90,66,46,29.70,29.57,7,3,15,0.00
2013-6-13,98,86,74,72,69,66,83,59,38,29.70,29.54,4,2,12,0.00
2013-6-14,94,83,72,76,70,68,94,68,46,29.65,29.52,2,0,9,0.19
2013-6-15,91,82,74,76,72,65,94,74,46,29.65,29.53,5,1,13,0.19
2013-6-16,96,85,74,74,70,66,92,64,42,29.66,29.51,7,2,14,0.00
2013-6-17,93,83,68,75,71,66,95,70,50,29.69,29.49,6,2,15,0.66
2013-6-18,85,77,70,75,70,67,95,81,63,29.66,29.52,6,1,19,0.21
2013-6-19,94,80,69,77,71,66,97,77,53,29.63,29.51,6,2,15,0.01
2013-6-20,95,82,75,74,71,68,86,71,41,29.69,29.56,8,3,18,0.00
2013-6-22,95,92,82,72,69,66,72,49,41,29.68,29.52,10,6,19,0.00
2013-6-23,95,86,76,73,69,66,85,60,41,29.63,29.52,9,5,22,0.00
2013-6-24,95,86,74,72,69,65,87,58,39,29.67,29.52,9,5,23,0.00
2013-6-25,97,87,77,73,68,63,82,56,36,29.63,29.47,10,6,23,0.00
2013-6-26,98,87,76,74,70,63,83,58,41,29.60,29.49,9,5,19,0.00
2013-6-27,101,88,77,74,70,66,81,57,37,29.66,29.50,7,2,15,0.00
2013-6-28,99,84,77,70,66,63,65,54,38,29.59,29.46,5,1,10,0.00
2013-6-29,98,87,76,71,65,58,78,50,28,29.55,29.44,4,1,14,0.00
2013-6-30,92,83,74,65,59,55,71,46,30,29.59,29.46,5,1,14,0.00
2013-7-1,87,79,69,63,57,53,69,49,33,29.68,29.59,6,1,12,0.00
2013-7-2,89,78,66,60,54,47,67,46,26,29.74,29.65,6,1,14,0.00
2013-7-3,92,79,64,60,53,43,72,44,21,29.71,29.59,5,1,10,0.00
2013-7-4,96,83,70,64,59,50,74,47,23,29.65,29.52,7,2,16,0.00
2013-7-5,98,84,70,65,60,55,72,47,27,29.64,29.49,6,2,14,0.00
2013-7-6,97,83,73,67,63,57,69,52,27,29.59,29.49,8,2,15,0.00
2013-7-7,98,87,74,71,66,62,76,53,34,29.64,29.55,8,2,15,0.00
2013-7-8,98,85,76,74,70,62,83,63,39,29.73,29.62,7,3,19,0.00
2013-7-9,100,87,76,73,65,60,83,52,27,29.76,29.61,7,2,14,0.00
2013-7-10,103,94,83,72,66,61,69,42,28,29.70,29.53,6,2,14,0.00
2013-7-11,103,88,81,72,69,64,70,54,31,29.61,29.52,9,2,19,0.00
2013-7-12,102,88,74,73,69,65,87,58,33,29.61,29.51,7,1,12,0.00
2013-7-13,101,90,80,73,68,59,73,51,33,29.64,29.50,6,2,14,0.00
2013-7-14,84,73,67,69,65,59,95,78,45,29.67,29.53,5,1,11,0.50
2013-7-15,73,69,66,72,68,65,97,96,93,29.73,29.62,3,0,8,1.01
2013-7-16,88,76,70,75,71,68,97,86,59,29.84,29.72,8,2,23,0.07
2013-7-17,90,77,71,75,72,68,95,85,57,29.88,29.78,8,1,22,0.06
2013-7-18,93,80,71,75,71,69,97,77,48,29.84,29.66,6,0,13,0.03
2013-7-19,95,83,74,73,71,67,92,69,42,29.70,29.57,9,2,19,0.00
2013-7-20,95,80,73,76,70,-100,93,73,44,29.63,29.49,5,1,13,0.24
2013-7-21,96,84,73,75,71,68,92,68,44,29.58,29.48,10,3,22,0.26
2013-7-22,97,86,76,75,72,69,90,66,41,29.62,29.49,7,3,16,0.02
2013-7-23,98,88,78,78,72,66,85,62,40,29.61,29.47,7,4,16,0.00
2013-7-24,97,86,77,73,70,66,79,61,41,29.69,29.50,6,2,15,0.00
2013-7-25,95,85,75,77,72,65,84,67,48,29.69,29.61,6,1,15,0.00
2013-7-26,95,83,77,77,72,70,90,71,45,29.66,29.50,5,2,15,0.10
2013-7-27,91,80,73,73,67,62,84,66,41,29.67,29.55,4,2,13,0.08
2013-7-28,93,80,67,73,68,64,92,68,45,29.64,29.51,7,2,14,0.00
2013-7-29,97,85,77,75,71,64,87,66,40,29.64,29.55,9,4,21,0.00
2013-7-30,99,87,78,73,70,64,82,58,35,29.72,29.58,7,3,21,0.00
2013-7-31,103,90,79,72,69,64,74,52,36,29.70,29.54,7,2,13,0.00
2013-8-1,101,90,78,75,71,69,78,55,37,29.64,29.51,5,1,13,0.00
2013-8-2,102,91,80,71,68,64,72,50,30,29.59,29.50,7,3,16,0.00
2013-8-3,101,90,79,71,68,64,73,50,33,29.65,29.55,9,3,14,0.00
2013-8-4,100,89,79,73,69,65,79,53,32,29.71,29.56,6,3,15,0.00
2013-8-5,102,90,80,71,68,62,73,51,30,29.65,29.48,6,2,13,0.00
2013-8-6,104,91,79,71,67,62,76,48,30,29.55,29.42,8,3,16,0.00
2013-8-7,105,92,79,72,68,64,75,49,28,29.53,29.39,7,4,16,0.00
2013-8-8,102,90,79,74,67,60,78,49,30,29.53,29.40,6,3,15,0.00
2013-8-9,104,90,80,71,66,58,72,47,24,29.60,29.46,6,2,14,0.00
2013-8-10,98,87,77,76,72,66,88,62,41,29.70,29.59,4,1,12,0.00
2013-8-11,101,88,76,72,69,66,80,56,33,29.72,29.58,6,1,14,0.00
2013-8-12,99,89,77,73,69,65,80,55,35,29.70,29.55,6,2,14,0.00
2013-8-13,101,85,78,76,68,-100,88,62,36,29.65,29.53,7,2,26,0.30
2013-8-14,90,78,73,76,70,-100,96,85,56,29.69,29.58,6,1,14,0.61
2013-8-15,88,72,71,71,54,-100,91,69,49,29.72,29.60,5,1,11,0.38
2013-8-16,88,76,69,69,61,-100,90,65,48,29.71,29.61,6,1,21,0.02
2013-8-17,90,77,66,64,59,-100,82,58,36,29.75,29.62,4,1,12,0.02
2013-8-18,91,79,67,67,62,60,79,59,39,29.75,29.64,6,1,10,0.00
2013-8-19,96,78,70,67,52,-100,80,54,31,29.72,29.57,3,1,10,0.00
2013-8-20,97,82,70,66,60,-100,80,51,28,29.69,29.59,5,1,11,0.00
2013-8-21,96,84,72,70,66,60,83,58,37,29.73,29.62,5,1,11,0.00
2013-8-22,99,87,76,72,68,65,79,56,36,29.73,29.56,7,1,11,0.00
2013-8-23,100,89,78,73,69,64,75,54,33,29.67,29.53,4,1,14,0.00
2013-8-24,100,87,76,72,66,-100,76,53,28,29.70,29.59,7,1,16,0.00
2013-8-25,98,87,75,71,68,65,79,54,36,29.78,29.68,8,3,16,0.00
2013-8-26,97,86,75,72,67,63,81,57,34,29.81,29.68,9,4,23,0.00
2013-8-27,93,79,73,71,70,67,89,74,43,29.77,29.70,7,3,20,0.00
2013-8-28,98,93,82,68,65,62,57,41,32,29.75,29.63,4,1,11,0.00
2013-8-29,102,88,74,69,65,62,76,50,29,29.72,29.59,6,1,11,0.00
2013-8-30,104,89,76,69,65,61,68,47,26,29.65,29.50,4,1,9,0.00
2013-8-31,105,90,79,70,62,-100,67,43,26,29.55,29.43,5,1,12,0.00
2013-9-1,105,92,80,70,66,62,66,45,27,29.53,29.40,5,1,12,0.00
2013-9-2,91,82,75,77,71,68,92,71,50,29.66,29.49,2,0,7,0.13
2013-9-3,100,86,76,72,66,59,77,54,32,29.65,29.52,3,1,9,0.02
2013-9-4,101,87,73,71,66,60,78,51,30,29.68,29.57,5,1,13,0.00
2013-9-5,100,87,75,73,68,61,83,57,30,29.75,29.63,5,1,11,0.00
2013-9-6,100,87,75,72,67,62,79,53,30,29.73,29.58,6,1,11,0.00
2013-9-7,99,86,76,72,65,-100,77,52,30,29.68,29.55,6,2,15,0.00
2013-9-8,97,84,70,71,66,62,88,58,35,29.64,29.51,8,2,22,0.00
2013-9-9,96,84,73,71,67,63,83,58,37,29.65,29.54,7,2,17,0.00
2013-9-10,94,83,74,72,67,60,86,61,33,29.74,29.62,7,2,16,0.00
2013-9-11,97,83,71,72,67,63,85,62,35,29.78,29.64,8,2,17,0.00
2013-9-12,97,85,74,70,67,65,78,56,37,29.72,29.57,4,0,9,0.00
2013-9-13,97,86,75,71,68,65,79,57,35,29.62,29.47,6,1,11,0.00
2013-9-14,95,84,76,69,63,-100,69,52,37,29.62,29.51,7,3,14,0.00
2013-9-15,96,84,74,70,65,61,70,53,38,29.66,29.58,7,2,13,0.00
2013-9-16,97,85,73,71,66,62,80,55,34,29.73,29.61,7,1,15,0.00
2013-9-17,93,85,77,70,66,63,72,55,41,29.72,29.58,4,1,9,0.00
2013-9-18,85,81,79,70,66,64,73,61,51,29.63,29.57,3,1,8,0.00
2013-9-19,90,82,73,73,70,64,94,67,51,29.64,29.51,6,2,15,0.23
2013-9-20,74,72,70,72,70,65,97,93,88,29.58,29.50,5,-58,14,0.34
2013-9-21,83,71,61,66,53,-100,90,59,29,29.65,29.52,5,2,16,0.01
2013-9-22,84,70,57,58,54,51,90,62,34,29.60,29.46,4,1,12,0.00
2013-9-23,87,72,58,59,55,50,86,58,30,29.53,29.40,7,2,14,0.00
2013-9-24,94,78,65,68,59,51,89,57,28,29.59,29.48,3,0,10,0.00
2013-9-25,94,78,60,59,54,51,82,48,23,29.55,29.42,4,0,10,0.00
2013-9-26,95,81,70,61,56,51,63,44,27,29.53,29.44,9,2,18,0.00
2013-9-27,88,79,70,72,67,59,84,67,58,29.58,29.48,10,4,19,0.00
2013-9-28,84,75,67,77,69,-100,95,84,73,29.70,29.51,10,3,21,0.45
2013-9-29,82,71,63,63,57,48,87,63,32,29.72,29.57,3,1,10,0.08
2013-9-30,87,73,57,63,56,53,86,58,32,29.59,29.47,6,1,12,0.00
2013-10-1,84,79,77,70,68,65,77,69,53,29.57,29.51,5,1,9,0.00
2013-10-2,88,79,72,72,70,69,93,77,56,29.63,29.51,7,4,16,0.00
2013-10-3,90,80,73,73,70,68,92,74,50,29.58,29.45,9,4,19,0.00
2013-10-4,88,80,72,71,70,68,91,72,52,29.57,29.47,8,5,19,0.00
2013-10-5,79,65,52,70,57,43,94,77,55,29.78,29.51,6,3,18,0.23
2013-10-6,75,61,49,51,43,33,94,60,22,29.80,29.69,5,1,17,0.23
2013-10-7,82,64,49,50,44,40,82,53,23,29.82,29.71,2,0,9,0.01
2013-10-8,82,66,51,52,47,44,79,53,28,29.77,29.64,6,1,13,0.00
2013-10-9,83,69,56,57,54,52,87,62,38,29.73,29.62,8,2,14,0.00
2013-10-10,84,72,59,64,60,54,89,67,46,29.71,29.53,7,3,17,0.00
2013-10-11,86,77,69,71,68,61,87,74,59,29.59,29.47,10,4,19,0.00
2013-10-12,90,78,71,76,70,-100,92,79,55,29.72,29.53,8,2,22,0.00
2013-10-13,76,71,67,70,67,64,92,86,78,29.86,29.70,4,1,13,0.00
2013-10-14,75,71,69,73,69,66,96,94,88,29.79,29.57,8,3,17,0.50
2013-10-15,78,66,53,73,64,52,96,93,82,29.75,29.55,6,2,15,0.70
2013-10-16,64,57,52,53,51,47,97,81,60,29.77,29.67,4,1,13,0.84
2013-10-17,71,58,45,51,46,42,93,68,39,29.80,29.65,2,0,9,0.01
2013-10-18,69,60,52,56,52,47,93,76,53,29.77,29.56,7,2,14,0.00
2013-10-19,66,52,42,48,40,-100,88,67,39,29.89,29.75,6,1,17,0.00
2013-10-20,71,57,41,48,43,38,91,63,38,29.75,29.54,9,3,18,0.00
2013-10-21,72,60,53,62,53,46,92,77,65,29.77,29.56,5,2,16,0.00
2013-10-22,76,60,45,47,45,41,88,62,31,29.84,29.69,5,1,10,0.00
2013-10-23,83,64,48,53,48,44,91,61,30,29.79,29.69,4,0,9,0.00
2013-10-24,80,66,51,54,49,45,83,57,37,29.92,29.72,3,0,10,0.00
2013-10-25,70,62,52,51,49,45,82,62,49,30.05,29.89,7,3,16,0.00
2013-10-26,76,64,57,64,55,-100,95,76,64,29.89,29.67,8,3,17,1.02
2013-10-27,67,62,58,60,58,55,96,87,74,29.79,29.67,5,0,9,1.02
2013-10-28,75,66,56,68,61,-100,97,88,72,29.76,29.65,6,3,14,0.00
2013-10-29,77,71,69,70,68,66,93,88,80,29.73,29.63,8,4,16,0.00
2013-10-30,72,69,66,69,67,64,96,93,88,29.67,29.46,11,5,25,0.08
2013-10-31,74,67,53,69,56,42,97,71,34,29.54,29.34,10,3,22,0.01
2013-11-1,76,62,50,52,48,43,84,62,38,29.76,29.47,8,2,17,0.01
2013-11-2,68,57,49,44,38,-100,73,53,30,29.95,29.76,4,1,17,0.00
2013-11-3,67,55,42,47,41,37,82,62,39,29.88,29.63,9,3,19,0.00
2013-11-4,60,57,53,59,54,48,97,88,69,29.75,29.65,7,3,16,0.62
2013-11-5,69,65,60,67,64,59,97,96,92,29.71,29.58,7,3,16,0.69
2013-11-6,70,56,45,68,50,39,95,81,59,30.03,29.61,7,2,15,0.24
2013-11-7,63,50,39,44,40,36,91,71,38,30.17,30.02,2,0,7,0.01
2013-11-8,64,53,41,46,42,38,91,67,41,30.06,29.79,6,2,14,0.00
2013-11-9,69,59,55,55,48,-100,77,68,59,29.87,29.76,8,3,19,0.00
2013-11-10,64,56,50,53,50,46,89,78,65,30.00,29.87,3,0,6,0.00
2013-11-11,73,58,46,56,51,44,93,78,53,29.95,29.82,4,0,9,0.00
2013-11-12,60,50,37,56,36,20,88,62,31,30.35,29.94,7,3,20,0.00
2013-11-13,51,39,28,31,25,20,85,60,35,30.35,30.05,3,0,8,0.00
2013-11-14,60,47,32,47,32,26,79,60,29,30.04,29.68,9,3,16,0.00
2013-11-15,72,61,49,59,53,46,93,77,54,29.68,29.50,6,3,15,0.00
2013-11-16,78,68,61,69,61,-100,92,80,60,29.52,29.33,10,5,21,0.00
2013-11-17,87,75,64,69,58,40,92,61,26,29.66,29.36,8,3,21,0.00
2013-11-18,70,63,55,40,34,31,46,34,25,29.83,29.66,5,2,12,0.00
2013-11-19,68,60,55,41,37,33,56,44,28,29.84,29.67,9,4,17,0.00
2013-11-20,65,57,47,54,45,37,79,65,53,29.69,29.54,9,5,22,0.00
2013-11-21,74,64,42,70,62,39,97,92,79,29.88,29.60,7,2,27,0.28
2013-11-22,41,35,34,39,33,32,95,92,87,30.12,29.88,9,4,23,0.21
2013-11-23,41,37,35,37,32,-100,96,87,70,30.22,30.11,6,3,16,0.08
2013-11-24,36,34,33,28,26,23,79,73,64,30.25,30.02,6,2,13,0.01
2013-11-25,37,34,31,35,32,27,96,93,74,30.03,29.82,4,0,13,0.63
2013-11-26,51,41,35,37,32,25,95,74,47,30.04,29.83,8,3,27,0.01
2013-11-27,46,36,29,26,22,17,76,58,33,30.15,30.01,6,1,17,0.01
2013-11-28,53,38,28,31,26,20,81,63,37,30.12,30.02,5,1,10,0.00
2013-11-29,58,43,29,43,34,26,90,72,45,30.18,30.01,5,2,13,0.00
2013-11-30,65,52,41,53,44,-100,91,78,61,30.02,29.81,7,3,17,0.00
2013-12-1,68,58,49,58,54,47,96,86,69,29.83,29.56,6,2,17,0.00
2013-12-2,69,54,43,53,46,41,97,76,38,29.57,29.34,4,0,9,0.00
2013-12-3,77,58,43,46,42,37,91,59,24,29.35,29.19,6,1,14,0.00
2013-12-4,78,62,48,58,48,38,84,61,43,29.55,29.25,6,1,16,0.00
2013-12-5,51,35,28,39,26,19,92,70,56,29.84,29.53,10,4,21,0.05
2013-12-6,31,27,24,29,24,20,94,89,83,30.19,29.80,4,0,9,0.12
2013-12-7,25,22,20,23,18,-100,93,84,81,30.21,29.94,3,0,7,0.02
2013-12-8,33,29,25,31,27,23,96,92,89,29.96,29.72,3,1,8,0.10
2013-12-9,33,31,29,31,28,21,96,87,72,30.10,29.83,5,2,11,0.03
2013-12-10,37,28,20,24,20,15,84,72,52,30.20,30.02,4,1,10,0.14
2013-12-11,46,34,25,31,27,22,90,75,55,30.26,29.98,4,1,10,0.28
2013-12-12,47,37,27,35,30,24,89,75,58,30.28,29.98,3,0,8,0.12
2013-12-13,46,43,40,45,38,32,96,84,73,29.98,29.47,7,4,15,0.05
2013-12-14,46,41,34,45,34,-100,96,82,62,30.00,29.45,8,3,18,0.01
2013-12-15,60,43,29,36,30,26,89,64,33,30.03,29.89,4,1,12,0.01
2013-12-16,66,50,33,39,35,29,86,60,33,29.91,29.81,6,2,12,0.00
2013-12-17,69,50,33,39,36,30,91,63,32,29.96,29.86,2,0,6,0.00
2013-12-18,69,53,37,49,42,34,90,68,36,29.93,29.66,10,3,20,0.00
2013-12-19,72,61,52,61,54,47,91,80,62,29.66,29.40,13,7,28,0.00
2013-12-20,68,55,34,63,52,32,95,88,74,29.50,29.41,10,4,22,0.00
2013-12-21,53,43,34,52,40,-100,97,94,88,29.45,29.23,6,1,13,1.10
2013-12-22,45,37,31,44,32,25,97,79,63,30.06,29.43,8,4,19,0.01
2013-12-23,45,34,26,29,27,23,92,76,49,30.22,30.05,4,0,7,0.01
2013-12-24,52,38,25,36,30,23,91,74,53,30.22,29.92,10,3,19,0.00
2013-12-25,59,44,34,44,35,29,87,73,48,30.09,29.92,5,2,14,0.00
2013-12-26,53,40,31,35,32,29,91,74,44,30.12,30.00,3,0,7,0.00
2013-12-27,58,43,30,41,35,28,91,74,46,30.13,30.00,4,0,10,0.00
2013-12-28,60,47,34,45,37,-100,93,72,51,30.00,29.64,9,2,14,0.00
2013-12-29,48,38,30,43,33,25,93,82,66,29.97,29.61,8,3,17,0.00
2013-12-30,43,34,28,26,21,17,80,61,43,30.08,29.93,5,2,11,0.00
2013-12-31,53,39,27,30,26,21,81,61,38,30.11,29.89,7,2,14,0.00
2014-1-1,69,49,34,48,36,25,82,64,41,29.88,29.54,11,5,26,0.00
2014-1-2,42,32,24,26,20,16,75,60,40,30.16,29.88,8,4,22,0.00